Welcome to our Virtual Airline
Sign-in:

Flight MFC33961

  • Submitted By: Karl-Heinz Klotz
  • Departure Airport: Kaltag (KAL)
  • Arrival Airport: Anvik (PANV)
  • Aircraft: BELL 412EP (N4121MM)
  • Flight Time: 01.19.54
  • Date Submitted: 19/05/07
  • Route: STOP-OVER AT GRAYLING (KGX)
  • Status: Accepted
Flight Details
Gross Revenue:
(3 load / $ 108.00 per unit
$ 324.00
Fuel Cost:
(22.6796 fuel used @ 5.1 / unit)
$ 115.67

Additional Log Information:

View Log

FS[12:58] ----- Flight Opened -----
FS[12:58] Cigar Box - 1.1.4.0
FS[12:58] FS: Prepar3D V4
FS[12:58] FSUIPC: v5,15
FS[12:58] Flight Number: MFC33961
FS[12:58] FS Aircraft: C185F SKYWAGON TUNDRA
FS[12:58] FS Model: C185
FS[12:58] FS Type: Cessna
FS[12:58] Departure: KAL
FS[12:58] Arrival: PANV
FS[12:58] Flight Level: 2500
FS[12:58] Flight Type: H
FS[12:58] Passengers: 3
FS[12:58] FOB: 236 lbs
FS[12:58] Gate: n/a
FS[12:58] NOTE: Parking Brake Ignored
FS[12:58] Crash Detection: Disabled
FS[12:58] Engines: 1 Piston
FS[12:58] NOTE: Boarding has started
FS[12:58] Engine 1: Started
FS[12:58] Light Data: Navigation ON
FS[12:58] Light Data: Beacon ON
FS[12:58] Light Data: Strobe lights ON
FS[12:58] Main Door Closed
FS[12:58] COM1: 121.05
FS[12:58] COM2: 127.80
FS[12:58] Transponder: 1200
FS[12:58] NAV1: 115.90
FS[12:58] NAV2: 110.60
FS[12:58] ADF1: 214.0
FS[12:58] ADF2: 240.0
FS[12:58] Navigation Mode: NAV
FS[12:58] NOTE: Taxi started
FS[12:58] NOTE: ----- TAKE OFF -----
FS[12:58] GS: 46 knots
FS[12:58] TAS: 46 knots
FS[12:58] IAS: 46 knots
FS[12:58] VS: 6 fpm
FS[12:58] FOB: 236 lbs
FS[12:58] Heading: 17°
FS[12:58] Pitch: 9°
FS[12:58] Bank: 0°
FS[12:58] Aircraft Weight: 2216,52 lbs
FS[12:58] Nearest Airport: KAL
FS[12:58] Distance: 0,34 miles
FS[12:58] Runway: 3 - KAL
FS[12:58] Ground Surface: Gravel
FS[12:58] Ground Condition: Normal
FS[12:58] NOTE: Weather Report
FS[12:58] Wind Heading: 346°
FS[12:58] Wind Speed: 0 knots
FS[12:58] OAT: 14° C
FS[12:58] TAT: 14° C
FS[12:58] Precipitation: None
FS[12:58] Dew Point: 4° C
FS[12:58] Visibility: 62 miles
FS[12:58] METAR: KALB 071851Z 32003KT 10SM -RA OVC060 18/11 A3011 RMK AO2 RAB26 SLP197 P0000 T01830111KALI 071853Z AUTO 13014KT 10SM BKN023 BKN031 OVC044 29/23 A2986 RMK AO2 SLP107 T02940233KALK 071856Z AUTO 25018G29KT 10SM FEW065 20/01 A3003 RMK AO2 PK WND 25030/1800 SLP092 T02000006KALM 071855Z AUTO 20019G25KT 10SM FEW044 24/M04 A2993 RMK AO2KALN 071845Z VRB04KT 10SM FEW025 BKN150 24/16 A3008KALO 071854Z 07012KT 10SM OVC041 17/08 A3019 RMK AO2 SLP225 T01670078KALS 071852Z AUTO 21017G25KT 10SM FEW100 18/M12 A2993 RMK AO2 SLP059 T01831122 PWINO PNO $KALW 071853Z 27007KT 230V300 10SM CLR 22/06 A2998 RMK AO2 SLP147 T02170056KALX 071855Z AUTO 00000KT 10SM CLR 28/13 A3011 RMK AO2 T02800131
FS[12:58] NOTE: Climb started
FS[12:58] View Mode: Virtual Cockpit
FS[12:59] Autopilot: Engaged
FS[12:59] AGL: 1332 ft
FS[12:59] AMSL: 1433 ft
FS[13:01] NOTE: TOC reached
FS[13:01] NOTE: Cruise started
FS[13:01] GS: 116 knots
FS[13:01] TAS: 117 knots
FS[13:01] IAS: 113 knots
FS[13:01] VS: 199 fpm
FS[13:01] FOB: 231 lbs
FS[13:01] Heading: 147°
FS[13:01] Pitch: 1°
FS[13:01] Bank: 0°
FS[13:01] Aircraft Weight: 2211,37 lbs
FS[13:01] Recovery: Flight Saved
FS[13:04] Recovery: Flight Saved
FS[13:06] Recovery: Flight Saved
FS[13:09] Recovery: Flight Saved
FS[13:12] Recovery: Flight Saved
FS[13:14] Recovery: Flight Saved
FS[13:17] Recovery: Flight Saved
FS[13:19] Recovery: Flight Saved
FS[13:22] Recovery: Flight Saved
FS[13:24] Recovery: Flight Saved
FS[13:27] Recovery: Flight Saved
FS[13:29] Recovery: Flight Saved
FS[13:32] Recovery: Flight Saved
FS[13:34] Recovery: Flight Saved
FS[13:37] Recovery: Flight Saved
FS[13:39] Recovery: Flight Saved
FS[13:42] Recovery: Flight Saved
FS[13:44] Recovery: Flight Saved
FS[13:47] Recovery: Flight Saved
FS[13:49] Recovery: Flight Saved
FS[13:52] Recovery: Flight Saved
FS[13:54] Recovery: Flight Saved
FS[13:57] Recovery: Flight Saved
FS[13:59] Recovery: Flight Saved
FS[14:02] NOTE: TOD reached
FS[14:02] NOTE: Descent started
FS[14:02] GS: 87 knots
FS[14:02] TAS: 89 knots
FS[14:02] IAS: 86 knots
FS[14:02] VS: -673 fpm
FS[14:02] FOB: 195 lbs
FS[14:02] Heading: 206°
FS[14:02] Pitch: 1°
FS[14:02] Bank: 0°
FS[14:02] Aircraft Weight: 2175,94 lbs
FS[14:02] NOTE: On approach
FS[14:02] Recovery: Flight Saved
FS[14:03] Autopilot: Disengaged
FS[14:03] AGL: 1063 ft
FS[14:03] AMSL: 1446 ft
FS[14:03] Flaps: Position 1
FS[14:03] GS: 87 knots
FS[14:03] TAS: 87 knots
FS[14:03] IAS: 86 knots
FS[14:03] VS: -609 fpm
FS[14:03] Flaps: Position 2
FS[14:03] GS: 77 knots
FS[14:03] TAS: 79 knots
FS[14:03] IAS: 78 knots
FS[14:03] VS: -596 fpm
FS[14:03] Flaps: Position 3
FS[14:03] GS: 71 knots
FS[14:03] TAS: 73 knots
FS[14:03] IAS: 72 knots
FS[14:03] VS: -838 fpm
FS[14:05] NOTE: ----- LANDED -----
FS[14:05] Landing Rate: -45,37 fpm
FS[14:05] GS: 50 knots
FS[14:05] TAS: 50 knots
FS[14:05] IAS: 50 knots
FS[14:05] VS: -45 fpm
FS[14:05] FOB: 195 lbs
FS[14:05] Heading: 156°
FS[14:05] Pitch: 3°
FS[14:05] Bank: 0°
FS[14:05] Aircraft Weight: 2175,91 lbs
FS[14:05] Nearest Airport: KGX
FS[14:05] Distance: 0,31 miles
FS[14:05] Runway: 15 - KGX
FS[14:05] Ground Surface: Gravel
FS[14:05] Ground Condition: Normal
FS[14:05] NOTE: Weather Report
FS[14:05] Wind Heading: 347°
FS[14:05] Wind Speed: 0 knots
FS[14:05] OAT: 14° C
FS[14:05] TAT: 15° C
FS[14:05] Precipitation: None
FS[14:05] Dew Point: 4° C
FS[14:05] Visibility: 62 miles
FS[14:05] METAR: PANV 071856Z AUTO 04015G24KT 10SM -RA OVC045 02/01 A2942 RMK AO2 SLP986 P0003 T00220006 FZRANO
FS[14:05] View Mode: Virtual Cockpit
FS[14:05] NOTE: Taxi started
FS[14:05] Flaps: Position 2
FS[14:05] Flaps: Position 1
FS[14:05] Flaps: Position 0
FS[14:06] Flaps: Position 2
FS[14:06] Flaps: Position 1
FS[14:06] GS: 69 knots
FS[14:06] TAS: 70 knots
FS[14:06] IAS: 70 knots
FS[14:06] VS: 992 fpm
FS[14:06] View Mode: Virtual Cockpit
FS[14:07] Autopilot: Engaged
FS[14:07] AGL: 1000 ft
FS[14:07] AMSL: 1049 ft
FS[14:08] Flaps: Position 0
FS[14:08] GS: 85 knots
FS[14:08] TAS: 86 knots
FS[14:08] IAS: 84 knots
FS[14:08] VS: -3 fpm
FS[14:08] Recovery: Flight Saved
FS[14:10] Recovery: Flight Saved
FS[14:13] Recovery: Flight Saved
FS[14:14] Autopilot: Disengaged
FS[14:14] AGL: 1319 ft
FS[14:14] AMSL: 1368 ft
FS[14:14] Flaps: Position 1
FS[14:14] GS: 89 knots
FS[14:14] TAS: 90 knots
FS[14:14] IAS: 89 knots
FS[14:14] VS: -184 fpm
FS[14:14] Flaps: Position 2
FS[14:14] GS: 73 knots
FS[14:14] TAS: 75 knots
FS[14:14] IAS: 74 knots
FS[14:14] VS: -611 fpm
FS[14:15] Flaps: Position 3
FS[14:15] GS: 64 knots
FS[14:15] TAS: 64 knots
FS[14:15] IAS: 64 knots
FS[14:15] VS: -549 fpm
FS[14:15] Flaps: Position 4
FS[14:15] GS: 58 knots
FS[14:15] TAS: 59 knots
FS[14:15] IAS: 59 knots
FS[14:15] VS: -376 fpm
FS[14:17] NOTE: ----- LANDED -----
FS[14:17] Landing Rate: -18,45 fpm
FS[14:17] GS: 48 knots
FS[14:17] TAS: 48 knots
FS[14:17] IAS: 48 knots
FS[14:17] VS: -17 fpm
FS[14:17] FOB: 187 lbs
FS[14:17] Heading: 173°
FS[14:17] Pitch: 3°
FS[14:17] Bank: 0°
FS[14:17] Aircraft Weight: 2167,66 lbs
FS[14:17] Nearest Airport: PANV
FS[14:17] Distance: 0,21 miles
FS[14:17] Runway: 17 - PANV
FS[14:17] Ground Surface: Gravel
FS[14:17] Ground Condition: Normal
FS[14:17] NOTE: Weather Report
FS[14:17] Wind Heading: 347°
FS[14:17] Wind Speed: 0 knots
FS[14:17] OAT: 14° C
FS[14:17] TAT: 14° C
FS[14:17] Precipitation: None
FS[14:17] Dew Point: 4° C
FS[14:17] Visibility: 62 miles
FS[14:17] METAR: PANV 071856Z AUTO 04015G24KT 10SM -RA OVC045 02/01 A2942 RMK AO2 SLP986 P0003 T00220006 FZRANO
FS[14:17] View Mode: Virtual Cockpit
FS[14:17] Flaps: Position 3
FS[14:17] Flaps: Position 2
FS[14:17] Flaps: Position 1
FS[14:17] Flaps: Position 0
FS[14:18] Engine 1: Stopped
FS[14:18] Gate: n/a
FS[14:18] NOTE: Flight Completed
FS[14:18] FS Aircraft: C185F SKYWAGON TUNDRA
FS[14:18] FS Model: C185
FS[14:18] FS Type: Cessna
FS[14:18] FOB: 187 lbs
FS[14:18] Fuel Used: 50 lbs
FS[14:18] Flight Time: 01:19:54
FS[14:18] Flight Time (Dawn): 00:00:00
FS[14:18] Flight Time (Day): 01:19:54
FS[14:18] Flight Time (Dusk): 00:00:00
FS[14:18] Flight Time (Night): 00:00:00
FS[14:18] Total Landings: 2
FS[14:18] MaxSim Rate: 0x
FS[14:18] Cigar Box - 1.1.4.0
FS[14:18] ----- Flight Closed -----

Route Map